createdAt,value
2023-05-10T00:01:12.389Z,19.50
2023-05-10T00:03:43.003Z,19.40
2023-05-10T00:06:12.263Z,19.40
2023-05-10T00:08:41.055Z,19.20
2023-05-10T00:11:10.132Z,19.20
2023-05-10T00:13:39.306Z,19.10
2023-05-10T00:16:09.121Z,19.20
2023-05-10T00:18:37.996Z,19.20
2023-05-10T00:21:09.106Z,19.30
2023-05-10T00:23:38.487Z,19.30
2023-05-10T00:26:07.328Z,19.30
2023-05-10T00:28:36.652Z,19.20
2023-05-10T00:31:05.725Z,19.10
2023-05-10T00:33:34.710Z,19.20
2023-05-10T00:36:03.707Z,19.20
2023-05-10T00:38:34.079Z,19.20
2023-05-10T00:41:03.155Z,19.30
2023-05-10T00:43:34.422Z,19.30
2023-05-10T00:46:03.430Z,19.20
2023-05-10T00:48:33.432Z,19.20
2023-05-10T00:51:04.009Z,19.30
2023-05-10T00:53:36.647Z,19.20
2023-05-10T00:56:07.554Z,19.10
2023-05-10T00:58:36.786Z,19.10
2023-05-10T01:01:06.836Z,19.10
2023-05-10T01:03:36.642Z,19.30
2023-05-10T01:06:05.879Z,19.50
2023-05-10T01:08:36.508Z,19.60
2023-05-10T01:11:05.530Z,19.40
2023-05-10T01:13:37.257Z,19.30
2023-05-10T01:16:07.968Z,19.60
2023-05-10T01:18:40.038Z,19.80
2023-05-10T01:21:19.831Z,19.90
2023-05-10T01:24:11.300Z,19.90
2023-05-10T01:27:17.720Z,19.80
2023-05-10T01:30:16.825Z,20.00
2023-05-10T01:32:53.906Z,19.90
2023-05-10T01:35:38.247Z,19.80
2023-05-10T01:38:14.903Z,19.50
2023-05-10T01:40:50.858Z,19.30
2023-05-10T01:43:25.423Z,19.00
2023-05-10T01:46:05.685Z,18.90
2023-05-10T01:48:36.477Z,18.90
2023-05-10T01:51:07.613Z,19.10
2023-05-10T01:53:40.164Z,19.50
2023-05-10T01:56:12.013Z,19.70
2023-05-10T01:58:45.247Z,19.80
2023-05-10T02:01:15.366Z,19.90
2023-05-10T02:04:12.144Z,20.00
2023-05-10T02:06:42.518Z,20.00
2023-05-10T02:09:13.130Z,19.90
2023-05-10T02:11:43.877Z,19.80
2023-05-10T02:14:13.973Z,19.70
2023-05-10T02:16:43.786Z,19.70
2023-05-10T02:19:16.390Z,19.80
2023-05-10T02:21:46.951Z,19.30
2023-05-10T02:24:18.245Z,19.50
2023-05-10T02:26:49.432Z,19.40
2023-05-10T02:29:19.340Z,19.40
2023-05-10T02:31:48.866Z,19.10
2023-05-10T02:34:19.893Z,19.10
2023-05-10T02:36:49.673Z,19.10
2023-05-10T02:39:19.922Z,19.40
2023-05-10T02:41:50.854Z,19.50
2023-05-10T02:44:22.123Z,19.70
2023-05-10T02:46:51.699Z,19.40
2023-05-10T02:49:22.127Z,19.40
2023-05-10T02:51:58.000Z,19.30
2023-05-10T02:54:31.748Z,19.50
2023-05-10T02:57:03.013Z,19.50
2023-05-10T02:59:32.141Z,19.30
2023-05-10T03:02:03.136Z,19.50
2023-05-10T03:04:33.670Z,19.60
2023-05-10T03:07:02.786Z,19.70
2023-05-10T03:09:32.283Z,19.50
2023-05-10T03:12:10.481Z,19.30
2023-05-10T03:14:48.978Z,19.50
2023-05-10T03:17:25.140Z,19.60
2023-05-10T03:19:58.027Z,19.70
2023-05-10T03:22:39.483Z,19.70
2023-05-10T03:25:12.832Z,19.60
2023-05-10T03:27:45.914Z,19.30
2023-05-10T03:30:16.076Z,19.20
2023-05-10T03:32:45.222Z,19.20
2023-05-10T03:35:16.896Z,19.40
2023-05-10T03:37:46.688Z,19.40
2023-05-10T03:40:17.185Z,19.30
2023-05-10T03:42:46.717Z,19.50
2023-05-10T03:45:15.661Z,19.60
2023-05-10T03:47:44.833Z,19.60
2023-05-10T03:50:13.838Z,19.50
2023-05-10T03:52:45.746Z,19.50
2023-05-10T03:55:14.757Z,19.60
2023-05-10T03:57:43.857Z,19.30
2023-05-10T04:00:14.003Z,19.00
2023-05-10T04:02:46.408Z,19.10
2023-05-10T04:05:20.889Z,19.10
2023-05-10T04:07:52.414Z,19.20
2023-05-10T04:10:22.288Z,19.10
2023-05-10T04:12:51.340Z,18.90
2023-05-10T04:15:21.118Z,18.80
2023-05-10T04:17:50.326Z,18.90
2023-05-10T04:20:19.756Z,18.90
2023-05-10T04:22:48.920Z,18.90
2023-05-10T04:25:19.381Z,18.80
2023-05-10T04:27:48.252Z,18.90
2023-05-10T04:30:17.709Z,18.90
2023-05-10T04:32:46.770Z,18.90
2023-05-10T04:35:15.996Z,19.00
2023-05-10T04:37:44.858Z,18.90
2023-05-10T04:40:15.256Z,18.80
2023-05-10T04:42:46.534Z,18.70
2023-05-10T04:45:15.888Z,18.50
2023-05-10T04:47:44.840Z,18.40
2023-05-10T04:50:13.868Z,18.30
2023-05-10T04:52:42.825Z,18.30
2023-05-10T04:55:12.073Z,18.40
2023-05-10T04:57:41.260Z,18.40
2023-05-10T05:00:13.402Z,18.30
2023-05-10T05:02:46.426Z,18.30
2023-05-10T05:05:15.551Z,18.20
2023-05-10T05:07:44.436Z,18.20
2023-05-10T05:10:13.336Z,18.20
2023-05-10T05:12:42.977Z,18.20
2023-05-10T05:15:14.367Z,18.10
2023-05-10T05:17:43.641Z,18.10
2023-05-10T05:20:14.043Z,18.10
2023-05-10T05:22:43.089Z,18.20
2023-05-10T05:25:12.978Z,18.30
2023-05-10T05:27:42.208Z,18.10
2023-05-10T05:30:14.254Z,18.10
2023-05-10T05:32:43.623Z,18.10
2023-05-10T05:35:13.246Z,18.00
2023-05-10T05:37:42.576Z,18.00
2023-05-10T05:40:15.251Z,17.90
2023-05-10T05:42:44.631Z,18.00
2023-05-10T05:45:15.784Z,18.10
2023-05-10T05:47:45.192Z,18.20
2023-05-10T05:50:14.279Z,18.30
2023-05-10T05:52:43.149Z,18.20
2023-05-10T05:55:12.978Z,18.20
2023-05-10T05:57:42.400Z,18.20
2023-05-10T06:00:11.954Z,18.20
2023-05-10T06:02:45.442Z,18.20
2023-05-10T06:05:15.449Z,17.90
2023-05-10T06:07:44.543Z,18.00
2023-05-10T06:10:13.474Z,18.10
2023-05-10T06:12:43.138Z,18.10
2023-05-10T06:15:13.076Z,18.20
2023-05-10T06:17:42.234Z,18.30
2023-05-10T06:20:14.674Z,18.40
2023-05-10T06:22:44.129Z,18.40
2023-05-10T06:25:13.586Z,18.60
2023-05-10T06:27:43.220Z,18.60
2023-05-10T06:30:14.449Z,18.50
2023-05-10T06:32:45.142Z,18.50
2023-05-10T06:35:15.918Z,18.60
2023-05-10T06:37:45.472Z,18.60
2023-05-10T06:40:14.387Z,18.80
2023-05-10T06:42:43.496Z,18.80
2023-05-10T06:45:13.348Z,18.80
2023-05-10T06:47:42.375Z,18.90
2023-05-10T06:50:12.686Z,19.00
2023-05-10T06:52:44.218Z,19.10
2023-05-10T06:55:13.687Z,19.20
2023-05-10T06:57:42.532Z,19.30
2023-05-10T07:00:12.416Z,19.40
2023-05-10T07:02:41.543Z,19.50
2023-05-10T07:05:11.275Z,19.50
2023-05-10T07:07:40.478Z,19.60
2023-05-10T07:10:12.077Z,19.50
2023-05-10T07:12:41.403Z,19.60
2023-05-10T07:15:11.606Z,19.60
2023-05-10T07:17:41.831Z,19.60
2023-05-10T07:20:13.215Z,19.40
2023-05-10T07:22:42.420Z,19.60
2023-05-10T07:25:12.944Z,19.50
2023-05-10T07:27:42.159Z,19.50
2023-05-10T07:30:12.352Z,19.40
2023-05-10T07:32:43.038Z,19.40
2023-05-10T07:35:12.230Z,19.40
2023-05-10T07:37:41.176Z,19.60
2023-05-10T07:40:12.786Z,19.60
2023-05-10T07:42:41.767Z,19.60
2023-05-10T07:45:11.542Z,19.60
2023-05-10T07:47:40.697Z,19.60
2023-05-10T07:50:10.767Z,19.70
2023-05-10T07:52:39.924Z,19.70
2023-05-10T07:55:10.278Z,19.80
2023-05-10T07:57:41.178Z,19.80
2023-05-10T08:00:11.502Z,19.80
2023-05-10T08:02:44.011Z,20.10
2023-05-10T08:05:13.104Z,20.20
2023-05-10T08:07:42.087Z,20.40
2023-05-10T08:10:13.244Z,20.50
2023-05-10T08:12:44.221Z,20.50
2023-05-10T08:15:13.891Z,20.60
2023-05-10T08:17:44.166Z,20.80
2023-05-10T08:20:17.832Z,20.70
2023-05-10T08:22:49.414Z,20.70
2023-05-10T08:25:20.015Z,20.70
2023-05-10T08:27:50.334Z,21.00
2023-05-10T08:30:19.300Z,21.10
2023-05-10T08:32:48.342Z,21.00
2023-05-10T08:35:18.661Z,21.50
2023-05-10T08:37:47.662Z,21.90
2023-05-10T08:40:17.824Z,21.60
2023-05-10T08:42:53.753Z,21.40
2023-05-10T08:45:24.597Z,21.40
2023-05-10T08:47:55.448Z,21.60
2023-05-10T08:50:24.703Z,20.90
2023-05-10T08:52:56.135Z,21.20
2023-05-10T08:55:25.841Z,21.60
2023-05-10T08:57:56.553Z,21.60
2023-05-10T09:00:25.909Z,21.70
2023-05-10T09:02:56.042Z,21.50
2023-05-10T09:05:25.468Z,21.50
2023-05-10T09:07:54.604Z,21.70
2023-05-10T09:10:24.106Z,21.50
2023-05-10T09:12:53.035Z,22.00
2023-05-10T09:15:23.696Z,22.30
2023-05-10T09:17:53.026Z,22.60
2023-05-10T09:20:22.733Z,22.60
2023-05-10T09:22:52.301Z,22.80
2023-05-10T09:25:21.620Z,22.70
2023-05-10T09:27:51.181Z,22.40
2023-05-10T09:30:28.398Z,22.00
2023-05-10T09:32:58.700Z,22.20
2023-05-10T09:35:29.877Z,21.90
2023-05-10T09:38:00.396Z,22.00
2023-05-10T09:40:30.800Z,21.90
2023-05-10T09:43:01.558Z,21.90
2023-05-10T09:45:34.594Z,21.70
2023-05-10T09:48:05.628Z,21.90
2023-05-10T09:50:35.238Z,22.10
2023-05-10T09:53:05.998Z,22.30
2023-05-10T09:55:42.466Z,21.60
2023-05-10T09:58:12.079Z,21.50
2023-05-10T10:00:43.602Z,21.40
2023-05-10T10:03:16.503Z,21.40
2023-05-10T10:05:46.505Z,21.40
2023-05-10T10:08:16.314Z,21.20
2023-05-10T10:10:47.534Z,21.60
2023-05-10T10:13:18.437Z,21.50
2023-05-10T10:15:52.293Z,21.60
2023-05-10T10:18:25.001Z,21.10
2023-05-10T10:20:55.160Z,21.00
2023-05-10T10:23:24.758Z,21.30
2023-05-10T10:25:55.334Z,21.60
2023-05-10T10:28:43.182Z,21.40
2023-05-10T10:31:28.152Z,21.40
2023-05-10T10:34:05.951Z,22.10
2023-05-10T10:36:38.097Z,22.40
2023-05-10T10:39:12.853Z,21.60
2023-05-10T10:41:45.659Z,21.50
2023-05-10T10:44:39.435Z,21.60
2023-05-10T10:47:26.412Z,21.90
2023-05-10T10:50:07.061Z,21.90
2023-05-10T10:52:37.637Z,22.30
2023-05-10T10:55:09.518Z,22.10
2023-05-10T10:57:52.271Z,22.10
2023-05-10T11:00:27.722Z,21.60
2023-05-10T11:03:00.996Z,21.30
2023-05-10T11:05:47.979Z,21.80
2023-05-10T11:08:20.173Z,21.80
2023-05-10T11:11:05.326Z,21.50
2023-05-10T11:13:36.241Z,21.60
2023-05-10T11:16:22.005Z,21.60
2023-05-10T11:19:02.906Z,21.50
2023-05-10T11:21:32.714Z,21.00
2023-05-10T11:24:07.101Z,20.90
2023-05-10T11:26:38.446Z,20.90
2023-05-10T11:29:07.776Z,21.10
2023-05-10T11:31:44.910Z,21.30
2023-05-10T11:34:26.150Z,22.00
2023-05-10T11:36:57.539Z,22.10
2023-05-10T11:39:29.808Z,22.10
2023-05-10T11:41:59.994Z,22.30
2023-05-10T11:44:32.798Z,21.80
2023-05-10T11:47:02.880Z,22.30
2023-05-10T11:49:33.448Z,22.30
2023-05-10T11:52:12.588Z,21.90
2023-05-10T11:54:48.454Z,22.00
2023-05-10T11:57:17.894Z,21.30
2023-05-10T11:59:46.943Z,21.50
2023-05-10T12:02:16.814Z,21.50
2023-05-10T12:04:47.561Z,21.00
2023-05-10T12:07:16.701Z,20.80
2023-05-10T12:09:45.980Z,20.90
2023-05-10T12:12:19.274Z,21.50
2023-05-10T12:14:52.739Z,21.90
2023-05-10T12:17:22.451Z,22.40
2023-05-10T12:19:53.518Z,22.00
2023-05-10T12:22:23.797Z,22.00
2023-05-10T12:24:53.319Z,22.40
2023-05-10T12:27:31.718Z,22.70
2023-05-10T12:30:02.550Z,22.90
2023-05-10T12:32:40.998Z,23.00
2023-05-10T12:35:11.658Z,22.70
2023-05-10T12:37:40.984Z,22.60
2023-05-10T12:40:12.088Z,22.90
2023-05-10T12:42:42.354Z,22.80
2023-05-10T12:45:12.169Z,21.90
2023-05-10T12:47:43.872Z,22.00
2023-05-10T12:50:15.060Z,22.30
2023-05-10T12:52:44.115Z,22.30
2023-05-10T12:55:13.079Z,22.20
2023-05-10T12:57:42.381Z,22.10
2023-05-10T13:00:13.130Z,22.10
2023-05-10T13:02:42.301Z,22.20
2023-05-10T13:05:11.651Z,22.00
2023-05-10T13:07:44.913Z,21.80
2023-05-10T13:10:13.970Z,21.60
2023-05-10T13:12:42.808Z,21.70
2023-05-10T13:15:12.362Z,21.60
2023-05-10T13:17:41.866Z,22.20
2023-05-10T13:20:11.649Z,22.20
2023-05-10T13:22:42.490Z,21.90
2023-05-10T13:25:11.966Z,21.90
2023-05-10T13:27:41.589Z,21.70
2023-05-10T13:30:12.420Z,21.90
2023-05-10T13:32:41.453Z,21.80
2023-05-10T13:35:10.898Z,21.80
2023-05-10T13:37:41.523Z,21.60
2023-05-10T13:40:11.030Z,21.70
2023-05-10T13:42:40.764Z,22.20
2023-05-10T13:45:10.932Z,22.50
2023-05-10T13:47:39.964Z,22.70
2023-05-10T13:50:09.833Z,22.80
2023-05-10T13:52:39.087Z,22.30
2023-05-10T13:55:10.293Z,22.80
2023-05-10T13:57:39.687Z,23.50
2023-05-10T14:00:09.834Z,23.70
2023-05-10T14:02:38.885Z,23.80
2023-05-10T14:05:09.107Z,23.90
2023-05-10T14:07:38.299Z,22.60
2023-05-10T14:10:09.641Z,22.90
2023-05-10T14:12:38.681Z,22.90
2023-05-10T14:15:08.489Z,23.30
2023-05-10T14:17:38.162Z,23.40
2023-05-10T14:20:08.281Z,23.50
2023-05-10T14:22:37.888Z,23.90
2023-05-10T14:25:09.133Z,23.40
2023-05-10T14:27:38.336Z,23.00
2023-05-10T14:30:08.656Z,23.10
2023-05-10T14:32:39.156Z,23.60
2023-05-10T14:35:10.733Z,23.50
2023-05-10T14:37:41.686Z,23.30
2023-05-10T14:40:13.480Z,23.10
2023-05-10T14:42:42.788Z,23.60
2023-05-10T14:45:13.112Z,23.10
2023-05-10T14:47:42.020Z,22.70
2023-05-10T14:50:14.739Z,23.10
2023-05-10T14:52:47.943Z,22.70
2023-05-10T14:55:18.573Z,22.40
2023-05-10T14:57:48.394Z,22.50
2023-05-10T15:00:20.394Z,22.00
2023-05-10T15:02:50.305Z,21.90
2023-05-10T15:05:19.714Z,21.80
2023-05-10T15:07:49.231Z,21.90
2023-05-10T15:10:20.253Z,21.70
2023-05-10T15:12:49.486Z,21.80
2023-05-10T15:15:18.610Z,22.00
2023-05-10T15:17:47.897Z,21.40
2023-05-10T15:20:17.282Z,21.40
2023-05-10T15:22:46.426Z,21.20
2023-05-10T15:25:17.046Z,21.00
2023-05-10T15:27:47.930Z,21.00
2023-05-10T15:30:17.024Z,20.90
2023-05-10T15:32:46.106Z,20.90
2023-05-10T15:35:15.281Z,21.00
2023-05-10T15:37:44.700Z,21.20
2023-05-10T15:40:14.648Z,21.10
2023-05-10T15:42:44.145Z,20.70
2023-05-10T15:45:16.423Z,20.80
2023-05-10T15:47:45.954Z,21.00
2023-05-10T15:50:14.832Z,21.30
2023-05-10T15:52:44.115Z,21.40
2023-05-10T15:55:14.177Z,21.10
2023-05-10T15:57:44.167Z,21.10
2023-05-10T16:00:15.396Z,20.90
2023-05-10T16:02:44.659Z,20.80
2023-05-10T16:05:14.292Z,20.70
2023-05-10T16:07:43.723Z,20.60
2023-05-10T16:10:13.150Z,20.70
2023-05-10T16:12:42.720Z,20.70
2023-05-10T16:15:13.841Z,20.90
2023-05-10T16:17:43.849Z,20.80
2023-05-10T16:20:13.569Z,20.90
2023-05-10T16:22:44.533Z,21.00
2023-05-10T16:25:14.048Z,21.00
2023-05-10T16:27:43.376Z,20.70
2023-05-10T16:30:14.592Z,20.60
2023-05-10T16:32:43.844Z,20.30
2023-05-10T16:35:13.470Z,20.40
2023-05-10T16:37:42.356Z,20.40
2023-05-10T16:40:12.312Z,20.30
2023-05-10T16:42:41.499Z,20.30
2023-05-10T16:45:11.344Z,20.20
2023-05-10T16:47:43.239Z,20.00
2023-05-10T16:50:12.894Z,20.20
2023-05-10T16:52:42.140Z,20.00
2023-05-10T16:55:11.866Z,20.20
2023-05-10T16:57:40.955Z,20.40
2023-05-10T17:00:12.127Z,20.40
2023-05-10T17:02:43.681Z,20.30
2023-05-10T17:05:13.556Z,20.10
2023-05-10T17:07:43.076Z,20.30
2023-05-10T17:10:13.029Z,20.20
2023-05-10T17:12:42.432Z,20.30
2023-05-10T17:15:12.690Z,20.30
2023-05-10T17:17:43.773Z,20.30
2023-05-10T17:20:13.292Z,20.40
2023-05-10T17:22:42.781Z,20.40
2023-05-10T17:25:12.213Z,19.70
2023-05-10T17:27:41.281Z,19.80
2023-05-10T17:30:11.268Z,20.10
2023-05-10T17:32:40.782Z,20.20
2023-05-10T17:35:12.036Z,20.00
2023-05-10T17:37:41.766Z,20.10
2023-05-10T17:40:11.864Z,20.30
2023-05-10T17:42:41.018Z,20.10
2023-05-10T17:45:11.214Z,19.70
2023-05-10T17:47:40.177Z,20.00
2023-05-10T17:50:11.634Z,19.80
2023-05-10T17:52:40.874Z,19.90
2023-05-10T17:55:11.147Z,20.10
2023-05-10T17:57:40.432Z,20.10
2023-05-10T18:00:10.389Z,19.90
2023-05-10T18:02:39.779Z,19.90
2023-05-10T18:05:11.948Z,19.90
2023-05-10T18:07:41.270Z,19.70
2023-05-10T18:10:11.952Z,19.70
2023-05-10T18:12:41.280Z,19.60
2023-05-10T18:15:11.110Z,19.60
2023-05-10T18:17:40.490Z,19.60
2023-05-10T18:20:12.250Z,19.60
2023-05-10T18:22:41.189Z,19.60
2023-05-10T18:25:10.792Z,19.60
2023-05-10T18:27:40.573Z,19.70
2023-05-10T18:30:12.551Z,19.90
2023-05-10T18:32:42.420Z,19.70
2023-05-10T18:35:13.544Z,19.60
2023-05-10T18:37:42.753Z,19.40
2023-05-10T18:40:14.860Z,19.40
2023-05-10T18:42:44.307Z,19.30
2023-05-10T18:45:14.150Z,19.10
2023-05-10T18:47:43.646Z,19.30
2023-05-10T18:50:14.318Z,19.40
2023-05-10T18:52:43.483Z,19.50
2023-05-10T18:55:13.021Z,19.30
2023-05-10T18:57:42.563Z,19.30
2023-05-10T19:00:13.288Z,19.40
2023-05-10T19:02:43.108Z,19.50
2023-05-10T19:05:15.198Z,19.30
2023-05-10T19:07:44.800Z,19.40
2023-05-10T19:10:14.616Z,19.50
2023-05-10T19:12:43.822Z,19.40
2023-05-10T19:15:13.487Z,19.40
2023-05-10T19:17:42.975Z,19.20
2023-05-10T19:20:16.470Z,19.10
2023-05-10T19:23:02.293Z,19.20
2023-05-10T19:25:36.029Z,19.20
2023-05-10T19:28:05.084Z,19.10
2023-05-10T19:30:34.168Z,19.30
2023-05-10T19:33:05.709Z,19.40
2023-05-10T19:35:37.385Z,19.30
2023-05-10T19:38:06.540Z,19.30
2023-05-10T19:40:36.732Z,19.30
2023-05-10T19:43:06.391Z,19.00
2023-05-10T19:45:36.727Z,19.10
2023-05-10T19:48:06.478Z,19.10
2023-05-10T19:50:38.382Z,19.00
2023-05-10T19:53:07.618Z,18.90
2023-05-10T19:55:36.994Z,18.90
2023-05-10T19:58:06.926Z,19.10
2023-05-10T20:00:37.110Z,19.20
2023-05-10T20:03:09.142Z,19.20
2023-05-10T20:05:40.002Z,19.00
2023-05-10T20:08:09.247Z,18.90
2023-05-10T20:10:38.158Z,19.20
2023-05-10T20:13:07.386Z,19.30
2023-05-10T20:15:36.434Z,19.30
2023-05-10T20:18:06.166Z,19.30
2023-05-10T20:20:35.579Z,19.40
2023-05-10T20:23:06.318Z,19.30
2023-05-10T20:25:35.702Z,19.20
2023-05-10T20:28:05.949Z,19.30
2023-05-10T20:30:35.198Z,19.20
2023-05-10T20:33:04.457Z,19.20
2023-05-10T20:35:34.419Z,19.40
2023-05-10T20:38:04.195Z,19.00
2023-05-10T20:40:35.191Z,19.00
2023-05-10T20:43:06.367Z,18.80
2023-05-10T20:45:37.340Z,18.80
2023-05-10T20:48:07.063Z,18.70
2023-05-10T20:50:36.015Z,18.70
2023-05-10T20:53:05.538Z,18.70
2023-05-10T20:55:36.370Z,19.00
2023-05-10T20:58:06.571Z,19.00
2023-05-10T21:00:35.497Z,19.20
2023-05-10T21:03:04.873Z,18.90
2023-05-10T21:05:33.855Z,18.90
2023-05-10T21:08:03.084Z,18.70
2023-05-10T21:10:32.075Z,18.70
2023-05-10T21:13:02.704Z,18.50
2023-05-10T21:15:31.632Z,18.60
2023-05-10T21:18:00.913Z,18.70
2023-05-10T21:20:30.994Z,18.80
2023-05-10T21:23:00.137Z,18.80
2023-05-10T21:25:29.202Z,19.00
2023-05-10T21:27:58.503Z,19.00
2023-05-10T21:30:29.010Z,19.00
2023-05-10T21:33:00.127Z,18.70
2023-05-10T21:35:29.816Z,18.70
2023-05-10T21:37:59.015Z,18.60
2023-05-10T21:40:28.368Z,18.50
2023-05-10T21:42:57.359Z,18.60
2023-05-10T21:45:26.826Z,18.70
2023-05-10T21:47:57.384Z,18.50
2023-05-10T21:50:27.250Z,18.40
2023-05-10T21:52:56.881Z,18.30
2023-05-10T21:55:26.382Z,18.30
2023-05-10T21:57:55.258Z,18.30
2023-05-10T22:00:24.712Z,18.30
2023-05-10T22:02:53.951Z,18.30
2023-05-10T22:05:24.990Z,18.20
2023-05-10T22:07:54.004Z,18.10
2023-05-10T22:10:23.158Z,18.20
2023-05-10T22:12:52.309Z,18.20
2023-05-10T22:15:21.281Z,18.50
2023-05-10T22:17:50.268Z,18.60
2023-05-10T22:20:21.212Z,18.50
2023-05-10T22:22:51.514Z,18.30
2023-05-10T22:25:20.873Z,18.30
2023-05-10T22:27:50.168Z,18.30
2023-05-10T22:30:20.187Z,18.20
2023-05-10T22:32:49.573Z,18.20
2023-05-10T22:35:18.524Z,18.30
2023-05-10T22:37:47.718Z,18.50
2023-05-10T22:40:18.436Z,18.70
2023-05-10T22:42:47.814Z,18.40
2023-05-10T22:45:16.924Z,18.20
2023-05-10T22:47:46.180Z,18.10
2023-05-10T22:50:16.415Z,18.10
2023-05-10T22:52:45.517Z,18.10
2023-05-10T22:55:14.381Z,18.30
2023-05-10T22:57:45.198Z,18.30
2023-05-10T23:00:15.237Z,18.30
2023-05-10T23:02:44.455Z,18.30
2023-05-10T23:05:14.066Z,18.30
2023-05-10T23:07:43.219Z,18.30
2023-05-10T23:10:12.839Z,18.50
2023-05-10T23:12:42.085Z,18.40
2023-05-10T23:15:13.550Z,18.30
2023-05-10T23:17:42.794Z,18.50
2023-05-10T23:20:13.206Z,18.40
2023-05-10T23:22:42.754Z,18.40
2023-05-10T23:25:12.557Z,18.40
2023-05-10T23:27:41.624Z,18.60
2023-05-10T23:30:13.687Z,18.40
2023-05-10T23:32:42.708Z,18.40
2023-05-10T23:35:11.878Z,18.30
2023-05-10T23:37:42.288Z,18.20
2023-05-10T23:40:11.793Z,18.20
2023-05-10T23:42:40.787Z,18.10
2023-05-10T23:45:12.356Z,18.20
2023-05-10T23:47:41.596Z,18.20
2023-05-10T23:50:11.909Z,18.20
2023-05-10T23:52:41.240Z,18.30
2023-05-10T23:55:11.280Z,18.30
2023-05-10T23:57:41.868Z,18.20
